createdAt,value
2019-02-19T00:01:57.855Z,24.06
2019-02-19T00:04:05.398Z,24.01
2019-02-19T00:06:15.050Z,23.98
2019-02-19T00:08:24.304Z,24.00
2019-02-19T00:10:33.733Z,23.86
2019-02-19T00:12:45.921Z,23.84
2019-02-19T00:14:57.471Z,23.87
2019-02-19T00:17:06.506Z,23.79
2019-02-19T00:19:22.915Z,23.82
2019-02-19T00:21:35.802Z,23.82
2019-02-19T00:23:46.487Z,23.78
2019-02-19T00:25:57.394Z,23.80
2019-02-19T00:28:14.903Z,23.67
2019-02-19T00:30:24.205Z,23.66
2019-02-19T00:32:32.713Z,23.58
2019-02-19T00:34:42.180Z,23.54
2019-02-19T00:36:53.993Z,23.53
2019-02-19T00:39:05.770Z,23.47
2019-02-19T00:41:31.905Z,23.43
2019-02-19T00:43:39.923Z,23.37
2019-02-19T00:45:54.239Z,23.40
2019-02-19T00:48:08.146Z,23.38
2019-02-19T00:50:54.166Z,23.42
2019-02-19T00:52:39.014Z,23.47
2019-02-19T00:54:48.585Z,23.50
2019-02-19T00:56:57.974Z,23.56
2019-02-19T00:59:08.211Z,23.51
2019-02-19T01:01:21.405Z,23.50
2019-02-19T01:06:09.133Z,23.43
2019-02-19T01:08:24.097Z,23.50
2019-02-19T01:10:35.732Z,23.48
2019-02-19T01:12:46.123Z,23.45
2019-02-19T01:14:58.370Z,23.37
2019-02-19T01:17:13.521Z,23.36
2019-02-19T01:19:27.365Z,23.42
2019-02-19T01:21:40.282Z,23.37
2019-02-19T01:23:56.902Z,23.29
2019-02-19T01:26:10.348Z,23.36
2019-02-19T01:28:23.081Z,23.41
2019-02-19T01:30:36.103Z,23.44
2019-02-19T01:32:57.324Z,23.37
2019-02-19T01:37:27.687Z,23.34
2019-02-19T01:39:35.899Z,23.35
2019-02-19T01:41:47.682Z,23.29
2019-02-19T01:43:59.770Z,23.31
2019-02-19T01:46:21.604Z,23.23
2019-02-19T01:48:38.359Z,23.24
2019-02-19T01:50:48.652Z,23.28
2019-02-19T01:53:08.350Z,23.20
2019-02-19T01:55:23.011Z,23.28
2019-02-19T01:57:38.053Z,23.15
2019-02-19T01:59:49.512Z,23.07
2019-02-19T02:02:05.876Z,22.96
2019-02-19T02:04:16.431Z,22.81
2019-02-19T02:06:27.253Z,22.78
2019-02-19T02:08:40.359Z,22.75
2019-02-19T02:10:54.888Z,22.73
2019-02-19T02:13:09.707Z,22.61
2019-02-19T02:15:33.441Z,22.67
2019-02-19T02:17:51.269Z,22.56
2019-02-19T02:20:06.713Z,22.58
2019-02-19T02:22:23.893Z,22.61
2019-02-19T02:24:31.904Z,22.62
2019-02-19T02:26:42.810Z,22.60
2019-02-19T02:29:00.053Z,22.59
2019-02-19T02:31:09.032Z,22.62
2019-02-19T02:33:18.914Z,22.78
2019-02-19T02:35:28.408Z,23.01
2019-02-19T02:37:38.396Z,23.27
2019-02-19T02:39:53.054Z,23.41
2019-02-19T02:42:02.318Z,23.67
2019-02-19T02:44:12.907Z,23.69
2019-02-19T02:46:37.723Z,23.61
2019-02-19T02:48:50.973Z,23.53
2019-02-19T02:51:06.992Z,23.43
2019-02-19T02:53:22.676Z,23.29
2019-02-19T02:55:33.712Z,23.14
2019-02-19T02:57:50.863Z,23.02
2019-02-19T02:59:59.490Z,22.88
2019-02-19T03:02:15.550Z,22.86
2019-02-19T03:04:24.640Z,22.78
2019-02-19T03:07:03.385Z,22.70
2019-02-19T03:09:13.548Z,22.62
2019-02-19T03:11:26.219Z,22.58
2019-02-19T03:13:36.520Z,22.53
2019-02-19T03:15:47.189Z,22.48
2019-02-19T03:18:00.180Z,22.46
2019-02-19T03:20:10.860Z,22.40
2019-02-19T03:22:20.047Z,22.36
2019-02-19T03:24:27.913Z,22.36
2019-02-19T03:26:41.514Z,22.53
2019-02-19T03:28:52.858Z,22.78
2019-02-19T03:31:02.405Z,23.01
2019-02-19T03:33:13.367Z,23.17
2019-02-19T03:35:22.562Z,23.33
2019-02-19T03:37:33.767Z,23.52
2019-02-19T03:39:43.046Z,23.57
2019-02-19T03:41:56.220Z,23.45
2019-02-19T03:44:06.757Z,23.41
2019-02-19T03:46:17.360Z,23.34
2019-02-19T03:48:27.747Z,23.24
2019-02-19T03:50:43.627Z,23.15
2019-02-19T03:52:54.904Z,23.04
2019-02-19T03:55:04.366Z,23.01
2019-02-19T03:57:15.297Z,22.86
2019-02-19T03:59:27.495Z,22.87
2019-02-19T04:01:39.081Z,22.81
2019-02-19T04:03:51.769Z,22.80
2019-02-19T04:06:03.932Z,22.66
2019-02-19T04:08:18.283Z,22.60
2019-02-19T04:10:27.123Z,22.52
2019-02-19T04:12:37.863Z,22.44
2019-02-19T04:14:50.320Z,22.37
2019-02-19T04:16:59.919Z,22.34
2019-02-19T04:19:23.300Z,22.52
2019-02-19T04:21:33.561Z,22.64
2019-02-19T04:23:46.181Z,22.92
2019-02-19T04:25:58.270Z,23.11
2019-02-19T04:28:14.134Z,23.25
2019-02-19T04:30:27.698Z,23.40
2019-02-19T04:32:40.010Z,23.54
2019-02-19T04:34:50.188Z,23.67
2019-02-19T04:36:59.743Z,23.63
2019-02-19T04:39:09.956Z,23.51
2019-02-19T04:41:20.336Z,23.46
2019-02-19T04:43:30.293Z,23.34
2019-02-19T04:45:38.424Z,23.22
2019-02-19T04:47:51.386Z,23.11
2019-02-19T04:50:00.517Z,23.00
2019-02-19T04:52:10.820Z,22.94
2019-02-19T04:54:20.019Z,22.86
2019-02-19T04:56:31.392Z,22.83
2019-02-19T04:58:41.928Z,22.71
2019-02-19T05:00:53.372Z,22.67
2019-02-19T05:03:04.450Z,22.56
2019-02-19T05:05:19.579Z,22.47
2019-02-19T05:07:31.332Z,22.42
2019-02-19T05:09:39.666Z,22.63
2019-02-19T05:11:50.278Z,22.84
2019-02-19T05:14:02.033Z,23.02
2019-02-19T05:16:14.307Z,23.21
2019-02-19T05:18:28.779Z,23.33
2019-02-19T05:20:41.035Z,23.59
2019-02-19T05:22:51.800Z,23.72
2019-02-19T05:25:01.854Z,23.92
2019-02-19T05:27:12.602Z,24.01
2019-02-19T05:29:35.274Z,23.94
2019-02-19T05:31:45.524Z,23.88
2019-02-19T05:33:58.058Z,23.64
2019-02-19T05:38:39.223Z,23.47
2019-02-19T05:40:49.932Z,23.41
2019-02-19T05:43:01.599Z,23.31
2019-02-19T05:45:09.833Z,23.24
2019-02-19T05:47:18.028Z,23.14
2019-02-19T05:49:25.459Z,23.08
2019-02-19T05:51:39.659Z,23.01
2019-02-19T05:53:50.978Z,22.93
2019-02-19T05:55:58.141Z,22.88
2019-02-19T05:58:06.141Z,22.81
2019-02-19T06:00:15.893Z,22.76
2019-02-19T06:05:10.557Z,22.78
2019-02-19T06:07:17.899Z,22.95
2019-02-19T06:09:24.907Z,23.13
2019-02-19T06:11:33.080Z,23.24
2019-02-19T06:13:40.513Z,23.38
2019-02-19T06:15:48.425Z,23.43
2019-02-19T06:17:56.122Z,23.44
2019-02-19T06:20:31.082Z,23.36
2019-02-19T06:22:37.401Z,23.16
2019-02-19T06:24:45.458Z,23.03
2019-02-19T06:27:09.762Z,22.85
2019-02-19T06:31:56.542Z,22.59
2019-02-19T06:34:05.939Z,22.46
2019-02-19T06:36:13.044Z,22.37
2019-02-19T06:38:21.738Z,22.36
2019-02-19T06:40:30.308Z,22.22
2019-02-19T06:42:37.935Z,22.21
2019-02-19T06:44:45.460Z,22.20
2019-02-19T06:46:52.874Z,22.16
2019-02-19T06:49:00.056Z,22.13
2019-02-19T06:51:07.342Z,22.04
2019-02-19T06:53:15.244Z,22.04
2019-02-19T06:55:22.611Z,21.94
2019-02-19T06:57:29.828Z,21.93
2019-02-19T06:59:44.447Z,21.96
2019-02-19T07:02:12.879Z,22.12
2019-02-19T07:04:24.366Z,22.27
2019-02-19T07:06:32.880Z,22.46
2019-02-19T07:08:40.128Z,22.67
2019-02-19T07:10:51.081Z,22.80
2019-02-19T07:13:03.215Z,22.82
2019-02-19T07:15:10.658Z,22.73
2019-02-19T07:17:27.256Z,22.62
2019-02-19T07:19:50.652Z,22.52
2019-02-19T07:22:00.516Z,22.37
2019-02-19T07:24:13.975Z,22.27
2019-02-19T07:26:33.010Z,22.17
2019-02-19T07:29:08.283Z,22.10
2019-02-19T07:31:30.483Z,22.04
2019-02-19T07:34:05.186Z,22.00
2019-02-19T07:36:22.129Z,22.09
2019-02-19T07:38:39.785Z,22.25
2019-02-19T07:43:38.767Z,22.55
2019-02-19T07:45:46.178Z,22.65
2019-02-19T07:48:07.868Z,22.68
2019-02-19T07:50:15.265Z,22.59
2019-02-19T07:52:38.911Z,22.54
2019-02-19T07:55:07.901Z,22.46
2019-02-19T07:57:20.918Z,22.35
2019-02-19T07:59:39.618Z,22.29
2019-02-19T08:02:19.317Z,22.20
2019-02-19T08:04:26.616Z,22.14
2019-02-19T08:06:39.602Z,22.02
2019-02-19T08:09:08.908Z,21.95
2019-02-19T08:11:47.230Z,22.10
2019-02-19T08:14:09.612Z,22.25
2019-02-19T08:16:25.912Z,22.44
2019-02-19T08:19:04.981Z,22.61
2019-02-19T08:21:29.653Z,22.74
2019-02-19T08:24:04.297Z,22.73
2019-02-19T08:26:13.740Z,22.60
2019-02-19T08:29:04.023Z,22.48
2019-02-19T08:34:03.282Z,22.31
2019-02-19T08:36:11.283Z,22.19
2019-02-19T08:38:19.144Z,22.04
2019-02-19T08:40:26.529Z,21.94
2019-02-19T08:42:35.156Z,21.87
2019-02-19T08:44:42.804Z,21.79
2019-02-19T08:46:51.507Z,21.75
2019-02-19T08:48:59.225Z,21.81
2019-02-19T08:51:07.260Z,22.00
2019-02-19T08:53:46.783Z,22.10
2019-02-19T08:56:02.228Z,22.24
2019-02-19T08:58:50.603Z,22.40
2019-02-19T09:00:58.809Z,22.56
2019-02-19T09:08:40.629Z,22.83
2019-02-19T09:13:32.398Z,22.80
2019-02-19T09:16:04.291Z,22.66
2019-02-19T09:18:48.110Z,22.55
2019-02-19T09:21:00.385Z,22.43
2019-02-19T09:23:17.589Z,22.27
2019-02-19T09:31:11.266Z,21.98
2019-02-19T09:33:36.650Z,21.83
2019-02-19T09:35:36.692Z,21.83
2019-02-19T09:38:31.889Z,21.73
2019-02-19T09:42:57.794Z,22.03
2019-02-19T09:45:39.471Z,22.21
2019-02-19T09:48:26.597Z,22.39
2019-02-19T09:50:43.016Z,22.53
2019-02-19T09:53:53.550Z,22.65
2019-02-19T09:56:27.692Z,22.75
2019-02-19T10:01:39.655Z,22.88
2019-02-19T10:03:55.264Z,22.69
2019-02-19T10:06:55.808Z,22.57
2019-02-19T10:09:36.137Z,22.46
2019-02-19T10:12:11.977Z,22.27
2019-02-19T10:14:18.332Z,22.14
2019-02-19T10:18:10.688Z,22.01
2019-02-19T10:19:06.993Z,21.87
2019-02-19T10:21:18.282Z,21.81
2019-02-19T10:24:16.582Z,21.82
2019-02-19T10:25:49.757Z,21.90
2019-02-19T10:28:05.643Z,22.07
2019-02-19T10:31:05.906Z,22.26
2019-02-19T10:33:01.084Z,22.43
2019-02-19T10:35:24.126Z,22.61
2019-02-19T10:38:01.249Z,22.62
2019-02-19T10:40:12.922Z,22.60
2019-02-19T10:42:49.200Z,22.49
2019-02-19T10:44:56.987Z,22.39
2019-02-19T10:47:04.411Z,22.28
2019-02-19T10:49:32.704Z,22.18
2019-02-19T10:52:15.784Z,22.08
2019-02-19T10:54:21.398Z,22.02
2019-02-19T10:56:42.488Z,22.15
2019-02-19T10:58:54.173Z,22.25
2019-02-19T11:01:01.566Z,22.41
2019-02-19T11:03:59.831Z,22.57
2019-02-19T11:05:31.482Z,22.64
2019-02-19T11:07:39.589Z,22.75
2019-02-19T11:09:46.836Z,22.83
2019-02-19T11:11:54.345Z,22.89
2019-02-19T11:14:03.255Z,22.96
2019-02-19T11:16:10.635Z,22.92
2019-02-19T11:18:18.487Z,22.92
2019-02-19T11:20:26.333Z,22.76
2019-02-19T11:22:34.354Z,22.66
2019-02-19T11:24:41.772Z,22.57
2019-02-19T11:26:48.898Z,22.43
2019-02-19T11:28:56.110Z,22.27
2019-02-19T11:31:03.580Z,22.20
2019-02-19T11:33:14.091Z,22.13
2019-02-19T11:35:20.724Z,22.02
2019-02-19T11:37:28.139Z,21.91
2019-02-19T11:40:05.911Z,21.83
2019-02-19T11:42:13.276Z,21.81
2019-02-19T11:44:20.751Z,21.75
2019-02-19T11:46:28.037Z,21.71
2019-02-19T11:48:37.149Z,21.69
2019-02-19T11:50:44.214Z,21.77
2019-02-19T11:52:51.476Z,21.91
2019-02-19T11:54:58.811Z,22.08
2019-02-19T11:57:06.211Z,22.22
2019-02-19T11:59:13.623Z,22.38
2019-02-19T12:01:21.080Z,22.51
2019-02-19T12:03:28.466Z,22.53
2019-02-19T12:05:35.569Z,22.49
2019-02-19T12:07:42.919Z,22.39
2019-02-19T12:09:50.370Z,22.29
2019-02-19T12:11:57.746Z,22.20
2019-02-19T12:14:05.081Z,22.09
2019-02-19T12:16:12.182Z,22.02
2019-02-19T12:18:19.377Z,21.99
2019-02-19T12:20:26.619Z,22.08
2019-02-19T12:22:33.954Z,22.19
2019-02-19T12:24:41.480Z,22.30
2019-02-19T12:26:49.339Z,22.44
2019-02-19T12:28:56.649Z,22.56
2019-02-19T12:31:03.809Z,22.60
2019-02-19T12:33:11.222Z,22.64
2019-02-19T12:35:18.724Z,22.80
2019-02-19T12:37:26.836Z,22.87
2019-02-19T12:39:34.742Z,22.92
2019-02-19T12:41:42.125Z,22.95
2019-02-19T12:43:51.013Z,23.01
2019-02-19T12:45:58.224Z,23.07
2019-02-19T12:48:05.582Z,23.08
2019-02-19T12:50:14.649Z,23.15
2019-02-19T12:52:21.765Z,23.22
2019-02-19T12:54:28.916Z,23.33
2019-02-19T12:56:36.213Z,23.41
2019-02-19T12:58:43.564Z,23.52
2019-02-19T13:00:51.503Z,23.60
2019-02-19T13:02:58.989Z,23.61
2019-02-19T13:05:06.441Z,23.59
2019-02-19T13:07:14.015Z,23.69
2019-02-19T13:09:21.153Z,23.78
2019-02-19T13:11:28.490Z,23.83
2019-02-19T13:13:36.569Z,23.92
2019-02-19T13:15:43.721Z,24.01
2019-02-19T13:17:51.634Z,24.11
2019-02-19T13:19:58.936Z,24.23
2019-02-19T13:22:06.255Z,24.34
2019-02-19T13:24:13.700Z,24.36
2019-02-19T13:26:21.475Z,24.38
2019-02-19T13:28:28.658Z,24.37
2019-02-19T13:30:35.969Z,24.30
2019-02-19T13:32:43.340Z,24.27
2019-02-19T13:34:50.766Z,24.29
2019-02-19T13:36:58.198Z,24.02
2019-02-19T13:39:06.623Z,24.22
2019-02-19T13:41:13.993Z,24.21
2019-02-19T13:43:24.414Z,24.21
2019-02-19T13:45:30.920Z,24.29
2019-02-19T13:47:38.316Z,24.37
2019-02-19T13:49:45.812Z,24.43
2019-02-19T13:52:04.435Z,24.48
2019-02-19T13:54:29.021Z,24.48
2019-02-19T13:57:01.248Z,24.71
2019-02-19T13:59:09.059Z,24.82
2019-02-19T14:01:16.290Z,24.85
2019-02-19T14:03:24.768Z,24.89
2019-02-19T14:05:32.725Z,24.74
2019-02-19T14:07:40.046Z,24.69
2019-02-19T14:09:47.178Z,24.49
2019-02-19T14:11:55.232Z,24.43
2019-02-19T14:14:18.903Z,24.32
2019-02-19T14:16:32.953Z,24.20
2019-02-19T14:18:51.790Z,24.18
2019-02-19T14:21:23.573Z,24.15
2019-02-19T14:24:05.129Z,24.21
2019-02-19T14:26:25.811Z,24.40
2019-02-19T14:29:10.576Z,24.44
2019-02-19T14:31:31.338Z,24.41
2019-02-19T14:34:00.261Z,24.55
2019-02-19T14:36:29.459Z,24.64
2019-02-19T14:38:58.966Z,24.84
2019-02-19T14:41:29.703Z,25.01
2019-02-19T14:44:02.078Z,24.96
2019-02-19T14:46:43.157Z,24.88
2019-02-19T14:49:13.552Z,24.74
2019-02-19T14:51:32.876Z,24.65
2019-02-19T14:54:13.410Z,24.62
2019-02-19T14:56:51.621Z,24.48
2019-02-19T14:59:20.336Z,24.40
2019-02-19T15:01:57.136Z,24.43
2019-02-19T15:04:29.840Z,24.53
2019-02-19T15:07:05.478Z,24.67
2019-02-19T15:09:49.478Z,24.83
2019-02-19T15:12:23.726Z,25.06
2019-02-19T15:14:44.871Z,25.16
2019-02-19T15:17:13.137Z,25.11
2019-02-19T15:19:55.235Z,25.07
2019-02-19T15:22:44.776Z,25.09
2019-02-19T15:25:13.361Z,24.99
2019-02-19T15:30:28.908Z,24.86
2019-02-19T15:33:08.899Z,24.71
2019-02-19T15:35:33.781Z,24.69
2019-02-19T15:38:08.810Z,24.82
2019-02-19T15:40:46.286Z,24.98
2019-02-19T15:43:26.336Z,25.06
2019-02-19T15:46:07.713Z,25.29
2019-02-19T15:48:53.350Z,25.43
2019-02-19T15:51:37.989Z,25.53
2019-02-19T15:54:11.108Z,25.53
2019-02-19T15:56:27.903Z,25.57
2019-02-19T15:59:23.125Z,25.49
2019-02-19T16:02:25.000Z,25.47
2019-02-19T16:05:08.836Z,25.32
2019-02-19T16:07:32.818Z,25.22
2019-02-19T16:10:09.246Z,25.18
2019-02-19T16:12:27.706Z,25.13
2019-02-19T16:15:02.834Z,25.12
2019-02-19T16:17:44.330Z,25.08
2019-02-19T16:23:11.797Z,25.31
2019-02-19T16:25:35.381Z,25.55
2019-02-19T16:28:07.426Z,25.90
2019-02-19T16:30:24.049Z,26.12
2019-02-19T16:32:58.567Z,26.34
2019-02-19T16:35:28.881Z,26.35
2019-02-19T16:38:01.152Z,26.40
2019-02-19T16:40:26.361Z,26.29
2019-02-19T16:43:07.236Z,26.29
2019-02-19T16:45:48.382Z,26.17
2019-02-19T16:48:19.823Z,26.15
2019-02-19T16:50:45.250Z,26.07
2019-02-19T16:53:11.277Z,26.05
2019-02-19T16:55:40.513Z,25.98
2019-02-19T16:58:14.630Z,25.96
2019-02-19T17:00:53.202Z,25.96
2019-02-19T17:03:23.349Z,25.93
2019-02-19T17:05:40.090Z,25.96
2019-02-19T17:08:17.569Z,25.91
2019-02-19T17:10:58.295Z,25.94
2019-02-19T17:13:33.818Z,25.91
2019-02-19T17:16:17.477Z,25.89
2019-02-19T17:18:49.773Z,25.89
2019-02-19T17:21:42.975Z,25.89
2019-02-19T17:24:07.685Z,25.85
2019-02-19T17:26:42.660Z,25.75
2019-02-19T17:29:13.440Z,25.74
2019-02-19T17:31:44.472Z,25.72
2019-02-19T17:34:17.624Z,25.75
2019-02-19T17:36:49.118Z,25.71
2019-02-19T17:39:25.021Z,25.73
2019-02-19T17:41:57.041Z,25.73
2019-02-19T17:44:11.444Z,25.68
2019-02-19T17:46:40.379Z,25.69
2019-02-19T17:49:22.302Z,25.67
2019-02-19T17:51:58.707Z,25.76
2019-02-19T17:54:23.249Z,25.96
2019-02-19T17:56:51.303Z,26.22
2019-02-19T17:59:30.934Z,26.40
2019-02-19T18:01:48.327Z,26.57
2019-02-19T18:04:17.330Z,26.66
2019-02-19T18:06:34.441Z,26.69
2019-02-19T18:08:49.334Z,26.66
2019-02-19T18:11:19.949Z,26.61
2019-02-19T18:13:42.813Z,26.57
2019-02-19T18:16:16.287Z,26.45
2019-02-19T18:18:45.181Z,26.42
2019-02-19T18:20:59.165Z,26.41
2019-02-19T18:23:07.759Z,26.37
2019-02-19T18:25:26.417Z,26.32
2019-02-19T18:27:46.879Z,26.30
2019-02-19T18:29:54.501Z,26.28
2019-02-19T18:32:01.758Z,26.01
2019-02-19T18:34:09.070Z,26.17
2019-02-19T18:36:18.055Z,26.17
2019-02-19T18:38:37.286Z,26.16
2019-02-19T18:40:45.275Z,26.20
2019-02-19T18:45:37.493Z,26.04
2019-02-19T18:48:00.266Z,26.06
2019-02-19T18:50:14.572Z,26.09
2019-02-19T18:52:27.532Z,26.07
2019-02-19T18:54:35.149Z,26.09
2019-02-19T18:56:49.962Z,26.11
2019-02-19T18:59:02.910Z,26.07
2019-02-19T19:01:15.122Z,26.11
2019-02-19T19:03:27.061Z,26.12
2019-02-19T19:05:38.434Z,26.04
2019-02-19T19:07:59.649Z,26.05
2019-02-19T19:10:52.084Z,26.10
2019-02-19T19:12:50.315Z,26.08
2019-02-19T19:15:14.305Z,26.09
2019-02-19T19:17:46.640Z,26.09
2019-02-19T19:20:10.816Z,26.08
2019-02-19T19:22:23.793Z,26.04
2019-02-19T19:24:31.169Z,26.01
2019-02-19T19:26:46.295Z,26.02
2019-02-19T19:28:57.624Z,25.98
2019-02-19T19:31:15.123Z,26.03
2019-02-19T19:33:31.981Z,26.02
2019-02-19T19:35:41.794Z,25.97
2019-02-19T19:37:54.748Z,25.96
2019-02-19T19:40:17.151Z,26.00
2019-02-19T19:42:28.567Z,25.98
2019-02-19T19:44:35.829Z,25.99
2019-02-19T19:47:11.727Z,26.00
2019-02-19T19:49:24.921Z,25.97
2019-02-19T19:51:35.415Z,25.93
2019-02-19T19:53:44.152Z,26.00
2019-02-19T19:55:57.475Z,25.96
2019-02-19T19:58:16.667Z,25.95
2019-02-19T20:00:41.250Z,25.92
2019-02-19T20:02:55.582Z,25.91
2019-02-19T20:05:04.435Z,25.89
2019-02-19T20:07:12.099Z,25.94
2019-02-19T20:09:27.758Z,26.01
2019-02-19T20:11:44.765Z,26.12
2019-02-19T20:13:59.361Z,26.34
2019-02-19T20:16:27.646Z,26.50
2019-02-19T20:18:39.360Z,26.65
2019-02-19T20:20:47.375Z,26.63
2019-02-19T20:22:54.611Z,26.62
2019-02-19T20:25:14.867Z,26.60
2019-02-19T20:27:28.277Z,26.55
2019-02-19T20:29:47.146Z,26.50
2019-02-19T20:31:54.530Z,26.39
2019-02-19T20:34:02.574Z,26.31
2019-02-19T20:36:12.661Z,26.26
2019-02-19T20:38:25.403Z,26.22
2019-02-19T20:40:36.498Z,26.15
2019-02-19T20:42:43.813Z,26.10
2019-02-19T20:44:52.163Z,26.07
2019-02-19T20:46:59.867Z,26.00
2019-02-19T20:49:07.124Z,25.94
2019-02-19T20:51:15.788Z,25.88
2019-02-19T20:53:28.985Z,25.87
2019-02-19T20:55:38.134Z,25.80
2019-02-19T20:57:45.552Z,25.80
2019-02-19T20:59:53.406Z,25.79
2019-02-19T21:02:00.639Z,25.77
2019-02-19T21:04:07.809Z,25.73
2019-02-19T21:06:16.021Z,25.76
2019-02-19T21:08:31.310Z,25.67
2019-02-19T21:10:39.030Z,25.82
2019-02-19T21:12:45.860Z,25.90
2019-02-19T21:14:52.818Z,26.04
2019-02-19T21:17:00.194Z,26.18
2019-02-19T21:19:07.551Z,26.28
2019-02-19T21:21:14.755Z,26.28
2019-02-19T21:23:22.092Z,26.24
2019-02-19T21:25:31.237Z,26.19
2019-02-19T21:27:42.923Z,26.12
2019-02-19T21:29:51.176Z,26.02
2019-02-19T21:31:59.126Z,25.88
2019-02-19T21:34:11.564Z,25.86
2019-02-19T21:36:18.583Z,25.82
2019-02-19T21:38:59.422Z,25.80
2019-02-19T21:41:07.882Z,25.78
2019-02-19T21:43:16.029Z,25.75
2019-02-19T21:45:23.756Z,25.66
2019-02-19T21:47:32.170Z,25.62
2019-02-19T21:49:39.539Z,25.67
2019-02-19T21:51:53.978Z,25.61
2019-02-19T21:53:55.813Z,25.60
2019-02-19T21:56:05.627Z,25.60
2019-02-19T21:58:12.939Z,25.57
2019-02-19T22:00:20.963Z,25.60
2019-02-19T22:02:29.212Z,25.71
2019-02-19T22:04:36.939Z,25.79
2019-02-19T22:06:44.273Z,25.90
2019-02-19T22:08:53.615Z,26.01
2019-02-19T22:11:02.782Z,26.08
2019-02-19T22:13:12.902Z,26.02
2019-02-19T22:15:29.315Z,25.96
2019-02-19T22:18:07.016Z,25.89
2019-02-19T22:20:39.058Z,25.86
2019-02-19T22:22:56.794Z,25.82
2019-02-19T22:25:09.313Z,25.68
2019-02-19T22:27:22.448Z,25.58
2019-02-19T22:29:37.885Z,25.54
2019-02-19T22:31:50.830Z,25.48
2019-02-19T22:34:10.764Z,25.41
2019-02-19T22:36:20.070Z,25.13
2019-02-19T22:38:28.255Z,25.14
2019-02-19T22:40:36.139Z,25.06
2019-02-19T22:42:43.219Z,24.88
2019-02-19T22:44:54.992Z,24.72
2019-02-19T22:47:04.961Z,24.74
2019-02-19T22:49:23.741Z,24.57
2019-02-19T22:51:34.840Z,24.69
2019-02-19T22:53:53.185Z,24.77
2019-02-19T22:56:06.855Z,24.72
2019-02-19T22:58:29.697Z,24.72
2019-02-19T23:00:57.641Z,24.76
2019-02-19T23:03:06.889Z,24.86
2019-02-19T23:05:14.040Z,24.98
2019-02-19T23:07:22.164Z,25.21
2019-02-19T23:09:29.979Z,25.24
2019-02-19T23:11:38.052Z,25.42
2019-02-19T23:13:45.906Z,25.54
2019-02-19T23:15:52.914Z,25.60
2019-02-19T23:18:00.159Z,25.48
2019-02-19T23:20:08.153Z,25.35
2019-02-19T23:22:21.715Z,25.20
2019-02-19T23:24:25.603Z,25.23
2019-02-19T23:26:35.857Z,25.19
2019-02-19T23:28:45.046Z,25.20
2019-02-19T23:30:53.192Z,25.33
2019-02-19T23:33:05.362Z,25.51
2019-02-19T23:35:28.685Z,25.58
2019-02-19T23:37:40.083Z,25.83
2019-02-19T23:39:59.314Z,26.01
2019-02-19T23:42:26.430Z,26.11
2019-02-19T23:44:34.643Z,26.10
2019-02-19T23:46:49.885Z,25.94
2019-02-19T23:49:01.262Z,25.72
2019-02-19T23:51:10.912Z,25.64
2019-02-19T23:53:21.280Z,25.56
2019-02-19T23:55:31.543Z,25.51
2019-02-19T23:57:39.413Z,25.39
2019-02-19T23:59:46.789Z,25.34
